This is the latest recevied weather packets stored in our database for station/object KG7FOQ-13. If no packets are shown the sender has not sent any weather packets the latest 1 day(s).
| Time | Temp. | Humidity | Pressure | Rain* | Wind** | Luminosity | Snow |
|---|---|---|---|---|---|---|---|
| 1836274681 | 23.33° C | 28% | 1014.8 hPa | 0 mm | 2.24 m/s, 193° | - | - |
| 1836274532 | 22.22° C | 31% | 1014.9 hPa | 0 mm | 2.68 m/s, 108° | - | - |
| 1836274380 | 21.67° C | 34% | 1014.9 hPa | 0 mm | 1.34 m/s, 69° | - | - |
| 1836274231 | 22.78° C | 30% | 1014.8 hPa | 0 mm | 1.79 m/s, 79° | - | - |
| 1836274080 | 21.11° C | 39% | 1014.9 hPa | 0 mm | 1.34 m/s, 203° | - | - |
| 1778057397 | 7.78° C | 51% | 1015.8 hPa | 0 mm | 8.05 m/s, 63° | - | - |
| 1778057096 | 7.78° C | 52% | 1015.7 hPa | 0 mm | 9.39 m/s, 46° | - | - |
| 1778056795 | 7.78° C | 50% | 1015.6 hPa | 0 mm | 10.73 m/s, 51° | - | - |
| 1778056495 | 7.78° C | 48% | 1015.7 hPa | 0 mm | 9.83 m/s, 56° | - | - |
| 1778056194 | 7.78° C | 48% | 1015.7 hPa | 0 mm | 8.49 m/s, 66° | - | - |
| 1778055894 | 7.78° C | 47% | 1015.5 hPa | 0 mm | 9.83 m/s, 90° | - | - |
| 1778055593 | 8.33° C | 47% | 1015.5 hPa | 0 mm | 9.39 m/s, 68° | - | - |
| 1778055293 | 8.33° C | 47% | 1015.3 hPa | 0 mm | 9.39 m/s, 69° | - | - |
| 1778054992 | 8.33° C | 47% | 1015.2 hPa | 0 mm | 8.94 m/s, 69° | - | - |
| 1778054691 | 8.33° C | 47% | 1015.2 hPa | 0 mm | 9.39 m/s, 63° | - | - |
| 1778054390 | 8.33° C | 48% | 1015.2 hPa | 0 mm | 8.49 m/s, 66° | - | - |
| 1778054090 | 8.89° C | 48% | 1015.1 hPa | 0 mm | 6.71 m/s, 63° | - | - |
| 1778053789 | 8.89° C | 48% | 1015 hPa | 0 mm | 8.49 m/s, 63° | - | - |
| 1778053489 | 8.89° C | 48% | 1014.9 hPa | 0 mm | 8.49 m/s, 77° | - | - |
| 1778053188 | 8.89° C | 48% | 1015 hPa | 0 mm | 7.6 m/s, 68° | - | - |
| 1778052888 | 8.89° C | 49% | 1014.9 hPa | 0 mm | 7.6 m/s, 69° | - | - |
| 1778052587 | 8.89° C | 47% | 1014.8 hPa | 0 mm | 8.05 m/s, 59° | - | - |
| 1778052287 | 8.89° C | 49% | 1015 hPa | 0 mm | 6.71 m/s, 41° | - | - |
| 1778051986 | 8.89° C | 50% | 1015 hPa | 0 mm | 6.26 m/s, 38° | - | - |
| 1778051686 | 8.89° C | 49% | 1014.8 hPa | 0 mm | 7.6 m/s, 66° | - | - |
* Rain latest hour (hover to see other rain measurements)
** Current wind speed in m/s (hover to see current wind gust speed)